Time;durP1;ratioP1;P1;durP2;ratioP2;P2;SDS_P1;SDS_P2;PMS_P1;PMS_P2;Temp;Humidity;BMP_temperature;BMP_pressure;BME280_temperature;BME280_humidity;BME280_pressure;Samples;Min_cycle;Max_cycle;Signal;HPM_P1;HPM_P2
2022/05/07 00:00:16;;;;;;;21.10;18.90;;;;;;;10.96;99.66;97236.24;107658;1268;51002;-80
2022/05/07 00:03:06;;;;;;;21.40;19.30;;;;;;;10.94;99.78;97236.94;107674;1268;32765;-80
2022/05/07 00:05:37;;;;;;;22.50;20.30;;;;;;;10.92;99.78;97240.39;107639;1271;38692;-80
2022/05/07 00:08:09;;;;;;;26.00;23.40;;;;;;;10.87;99.96;97238.80;107656;1271;44079;-80
2022/05/07 00:10:42;;;;;;;27.70;24.90;;;;;;;10.84;100.00;97238.16;107606;1269;43692;-80
2022/05/07 00:13:13;;;;;;;28.20;25.20;;;;;;;10.84;100.00;97235.44;107645;1268;39184;-80
2022/05/07 00:18:01;;;;;;;24.20;21.70;;;;;;;10.82;100.00;97237.30;107677;1270;38260;-80
2022/05/07 00:18:35;;;;;;;26.50;23.70;;;;;;;10.78;100.00;97230.98;107652;1271;37380;-80
2022/05/07 00:21:06;;;;;;;27.10;24.30;;;;;;;10.77;100.00;97234.64;107690;1268;31213;-79
2022/05/07 00:23:37;;;;;;;23.90;21.60;;;;;;;10.76;100.00;97232.05;107677;1268;34828;-80
2022/05/07 00:26:08;;;;;;;24.00;21.70;;;;;;;10.68;99.99;97230.91;107662;1268;50180;-80
2022/05/07 00:28:40;;;;;;;23.10;20.70;;;;;;;10.61;99.99;97231.60;107582;1270;45201;-80
2022/05/07 00:31:10;;;;;;;22.40;20.00;;;;;;;10.57;99.97;97230.43;107637;1271;44093;-80
2022/05/07 00:33:41;;;;;;;23.10;20.80;;;;;;;10.51;99.95;97232.80;107659;1270;36397;-80
2022/05/07 00:36:12;;;;;;;24.80;22.30;;;;;;;10.44;100.00;97231.04;107584;1270;40403;-80
2022/05/07 00:38:43;;;;;;;26.60;23.70;;;;;;;10.39;100.00;97229.16;107569;1271;38251;-80
2022/05/07 00:41:14;;;;;;;27.80;24.90;;;;;;;10.36;100.00;97228.67;107651;1270;37899;-80
2022/05/07 00:43:44;;;;;;;30.20;27.00;;;;;;;10.36;100.00;97228.15;107608;1271;34170;-81
2022/05/07 00:46:16;;;;;;;29.40;25.60;;;;;;;10.36;100.00;97227.83;107651;1271;47013;-80
2022/05/07 00:48:46;;;;;;;24.40;21.90;;;;;;;10.36;100.00;97222.90;107631;1271;34892;-80
2022/05/07 00:54:03;;;;;;;27.80;23.90;;;;;;;10.24;100.00;97222.33;107621;1268;39285;-80
2022/05/07 00:56:36;;;;;;;26.80;23.90;;;;;;;10.19;100.00;97218.42;107673;1268;38043;-79
2022/05/07 00:59:07;;;;;;;27.50;24.20;;;;;;;10.16;100.00;97217.95;107721;1268;39277;-80
2022/05/07 01:01:38;;;;;;;25.80;23.10;;;;;;;10.15;100.00;97218.69;107689;1268;42034;-79
2022/05/07 01:04:10;;;;;;;27.70;24.70;;;;;;;10.10;100.00;97217.01;107700;1268;35504;-79
2022/05/07 01:06:41;;;;;;;30.90;27.10;;;;;;;10.05;100.00;97213.08;107669;1268;32874;-79
2022/05/07 01:09:13;;;;;;;34.50;30.40;;;;;;;10.04;100.00;97212.17;107729;1268;38533;-80
2022/05/07 01:11:46;;;;;;;38.30;32.40;;;;;;;10.10;100.00;97210.23;107722;1268;39378;-80
2022/05/07 01:14:16;;;;;;;40.30;33.50;;;;;;;10.18;100.00;97207.30;107714;1270;37192;-80
2022/05/07 01:16:47;;;;;;;32.80;29.30;;;;;;;10.25;100.00;97206.06;107657;1270;29764;-80
2022/05/07 01:19:18;;;;;;;36.10;29.80;;;;;;;10.29;100.00;97205.94;107657;1270;36658;-80
2022/05/07 01:21:49;;;;;;;37.50;32.50;;;;;;;10.31;100.00;97207.90;107609;1270;83377;-80
2022/05/07 01:24:20;;;;;;;40.50;35.60;;;;;;;10.33;100.00;97209.17;107710;1268;34960;-80
2022/05/07 01:26:51;;;;;;;38.40;31.30;;;;;;;10.32;100.00;97213.62;107690;1268;36813;-80
2022/05/07 01:29:22;;;;;;;33.70;29.70;;;;;;;10.28;100.00;97214.57;107742;1268;33758;-80
2022/05/07 01:31:52;;;;;;;37.60;31.00;;;;;;;10.23;100.00;97215.12;107746;1268;35701;-80
2022/05/07 01:34:23;;;;;;;39.50;33.50;;;;;;;10.24;100.00;97212.89;107598;1270;48753;-80
2022/05/07 01:36:54;;;;;;;38.10;32.90;;;;;;;10.31;100.00;97212.20;107663;1270;35902;-80
2022/05/07 01:39:25;;;;;;;43.70;36.10;;;;;;;10.36;100.00;97209.96;107699;1268;47806;-80
2022/05/07 01:41:55;;;;;;;39.50;34.40;;;;;;;10.39;100.00;97203.98;107775;1268;35200;-80
2022/05/07 01:44:27;;;;;;;32.60;29.10;;;;;;;10.43;100.00;97206.50;107707;1268;32921;-80
2022/05/07 01:49:45;;;;;;;31.20;27.70;;;;;;;10.46;100.00;97207.66;107704;1268;37076;-80
2022/05/07 01:52:16;;;;;;;33.50;29.90;;;;;;;10.46;100.00;97204.95;107639;1270;37232;-80
2022/05/07 01:54:47;;;;;;;33.80;30.10;;;;;;;10.49;100.00;97207.19;107619;1270;36868;-80
2022/05/07 01:57:18;;;;;;;35.00;30.70;;;;;;;10.53;100.00;97207.39;107594;1270;30848;-80
2022/05/07 01:59:49;;;;;;;35.50;31.30;;;;;;;10.54;100.00;97206.08;107646;1268;38255;-80
2022/05/07 02:02:20;;;;;;;34.20;30.20;;;;;;;10.55;100.00;97205.87;107686;1268;38808;-80
2022/05/07 02:04:51;;;;;;;33.60;29.40;;;;;;;10.59;100.00;97208.95;107678;1268;32363;-80
2022/05/07 02:07:21;;;;;;;35.80;31.10;;;;;;;10.63;100.00;97205.45;107655;1268;44011;-80
2022/05/07 02:09:52;;;;;;;36.10;32.00;;;;;;;10.66;100.00;97209.27;107634;1268;45492;-80
2022/05/07 02:12:23;;;;;;;38.60;33.00;;;;;;;10.68;100.00;97206.30;107670;1268;48404;-80
2022/05/07 02:14:54;;;;;;;43.80;35.40;;;;;;;10.66;100.00;97211.40;107679;1268;40006;-80
2022/05/07 02:17:25;;;;;;;43.60;36.80;;;;;;;10.63;100.00;97211.29;107672;1268;45527;-80
2022/05/07 02:19:55;;;;;;;41.90;35.50;;;;;;;10.63;100.00;97213.46;107664;1270;33562;-80
2022/05/07 02:22:26;;;;;;;44.80;37.40;;;;;;;10.65;100.00;97211.39;107702;1270;32642;-80
2022/05/07 02:24:58;;;;;;;42.80;36.30;;;;;;;10.62;100.00;97213.99;107774;1268;35078;-80
2022/05/07 02:27:29;;;;;;;39.40;32.40;;;;;;;10.62;100.00;97213.30;107682;1268;35542;-80
2022/05/07 02:30:00;;;;;;;38.20;33.80;;;;;;;10.59;100.00;97218.45;107710;1268;40724;-80
2022/05/07 02:32:31;;;;;;;41.90;35.50;;;;;;;10.54;100.00;97217.47;107734;1268;36893;-79
2022/05/07 02:35:02;;;;;;;38.40;32.00;;;;;;;10.55;100.00;97215.66;107663;1268;33393;-79
2022/05/07 02:37:33;;;;;;;32.30;28.90;;;;;;;10.58;100.00;97217.29;107657;1270;35598;-79
2022/05/07 02:40:04;;;;;;;33.50;29.80;;;;;;;10.59;100.00;97213.89;107709;1268;34112;-80
2022/05/07 02:42:36;;;;;;;32.80;28.50;;;;;;;10.56;100.00;97215.36;107666;1268;37828;-80
2022/05/07 02:45:09;;;;;;;35.90;32.00;;;;;;;10.54;100.00;97217.73;107668;1268;42027;-80
2022/05/07 02:47:42;;;;;;;36.90;32.40;;;;;;;10.54;100.00;97216.30;107696;1268;44399;-80
2022/05/07 02:50:13;;;;;;;33.10;29.50;;;;;;;10.54;100.00;97218.10;107744;1268;41569;-80
2022/05/07 02:52:44;;;;;;;30.00;26.90;;;;;;;10.57;100.00;97214.48;107536;1271;31704;-80
2022/05/07 02:55:15;;;;;;;31.50;28.10;;;;;;;10.60;100.00;97218.20;107699;1268;34053;-80
2022/05/07 02:57:46;;;;;;;29.30;26.30;;;;;;;10.62;100.00;97216.48;107659;1268;49689;-80
2022/05/07 03:00:18;;;;;;;27.30;24.50;;;;;;;10.64;100.00;97217.65;107676;1267;45379;-80
2022/05/07 03:02:49;;;;;;;25.40;22.70;;;;;;;10.63;100.00;97218.02;107693;1268;35315;-80
2022/05/07 03:05:19;;;;;;;26.00;23.40;;;;;;;10.63;100.00;97218.61;107688;1268;40534;-80
2022/05/07 03:07:50;;;;;;;27.70;24.80;;;;;;;10.63;100.00;97219.52;107652;1268;41102;-80
2022/05/07 03:10:21;;;;;;;26.80;24.30;;;;;;;10.64;100.00;97219.51;107598;1268;44257;-80
2022/05/07 03:12:52;;;;;;;25.50;22.90;;;;;;;10.66;100.00;97219.98;107713;1270;33668;-80
2022/05/07 03:15:24;;;;;;;26.80;24.00;;;;;;;10.68;100.00;97221.52;107694;1270;38272;-80
2022/05/07 03:17:54;;;;;;;25.50;22.90;;;;;;;10.69;100.00;97222.70;107777;1268;36310;-80
2022/05/07 03:20:25;;;;;;;25.50;22.90;;;;;;;10.71;100.00;97224.25;107652;1270;48050;-80
2022/05/07 03:22:56;;;;;;;26.80;24.00;;;;;;;10.72;100.00;97226.31;107718;1270;42316;-80
2022/05/07 03:25:27;;;;;;;27.40;24.70;;;;;;;10.75;100.00;97227.33;107692;1269;68251;-80
2022/05/07 03:27:58;;;;;;;26.60;23.70;;;;;;;10.75;100.00;97226.31;107690;1268;36706;-79
2022/05/07 03:30:28;;;;;;;25.80;23.10;;;;;;;10.76;100.00;97225.30;107727;1268;44149;-79
2022/05/07 03:32:59;;;;;;;24.30;21.80;;;;;;;10.76;100.00;97221.48;107587;1270;50402;-80
2022/05/07 03:35:30;;;;;;;23.10;20.80;;;;;;;10.76;100.00;97222.66;107653;1268;52194;-80
2022/05/07 03:38:01;;;;;;;25.00;22.40;;;;;;;10.75;100.00;97225.42;107735;1268;33753;-80
2022/05/07 03:40:32;;;;;;;24.10;21.60;;;;;;;10.70;100.00;97223.50;107713;1268;43815;-80
2022/05/07 03:43:05;;;;;;;25.50;23.00;;;;;;;10.69;100.00;97224.92;107695;1268;33951;-79
2022/05/07 03:45:36;;;;;;;23.80;21.40;;;;;;;10.66;100.00;97225.87;107684;1268;32793;-80
2022/05/07 03:48:08;;;;;;;28.10;23.80;;;;;;;10.61;100.00;97224.44;107583;1270;45865;-80
2022/05/07 03:50:39;;;;;;;31.20;27.90;;;;;;;10.55;100.00;97225.80;107658;1270;36047;-80
2022/05/07 03:55:58;;;;;;;24.50;22.00;;;;;;;10.46;100.00;97225.32;107672;1268;40566;-79
2022/05/07 03:58:30;;;;;;;26.90;23.80;;;;;;;10.48;100.00;97223.46;107703;1268;40833;-80
2022/05/07 04:01:01;;;;;;;27.40;22.60;;;;;;;10.54;100.00;97227.48;107715;1267;36679;-80
2022/05/07 04:03:33;;;;;;;25.70;21.90;;;;;;;10.59;100.00;97229.11;107690;1268;35915;-80
2022/05/07 04:06:04;;;;;;;27.30;24.50;;;;;;;10.60;100.00;97230.54;107685;1268;36765;-80
2022/05/07 04:08:35;;;;;;;22.60;20.30;;;;;;;10.57;100.00;97231.80;107668;1268;33846;-80
2022/05/07 04:11:06;;;;;;;23.70;21.30;;;;;;;10.57;100.00;97231.59;107635;1270;39722;-80
2022/05/07 04:13:36;;;;;;;28.20;23.50;;;;;;;10.60;100.00;97235.48;107632;1268;48652;-79
2022/05/07 04:16:07;;;;;;;27.60;24.60;;;;;;;10.64;100.00;97236.48;107670;1270;33094;-80
2022/05/07 04:18:38;;;;;;;42.70;38.80;;;;;;;10.70;100.00;97238.45;107626;1270;45218;-80
2022/05/07 04:21:09;;;;;;;30.40;27.10;;;;;;;10.76;100.00;97236.83;107602;1270;41867;-80
2022/05/07 04:23:40;;;;;;;30.20;27.00;;;;;;;10.82;100.00;97236.98;107631;1270;38997;-80
2022/05/07 04:26:11;;;;;;;30.70;27.60;;;;;;;10.90;100.00;97239.16;107652;1270;37590;-80
2022/05/07 04:28:42;;;;;;;31.90;28.50;;;;;;;10.98;100.00;97238.32;107626;1270;35418;-80
2022/05/07 04:31:15;;;;;;;29.40;26.30;;;;;;;11.08;100.00;97240.80;107651;1270;43464;-80
2022/05/07 04:33:46;;;;;;;28.60;25.70;;;;;;;11.16;100.00;97238.75;107592;1270;42220;-80
2022/05/07 04:36:17;;;;;;;32.30;29.00;;;;;;;11.18;100.00;97233.48;107658;1270;35447;-80
2022/05/07 04:38:48;;;;;;;30.90;25.80;;;;;;;11.19;100.00;97236.77;107690;1268;33928;-80
2022/05/07 04:41:19;;;;;;;30.80;26.80;;;;;;;11.23;100.00;97234.91;107686;1268;40080;-81
2022/05/07 04:43:50;;;;;;;35.40;31.70;;;;;;;11.27;100.00;97233.87;107608;1268;45218;-80
2022/05/07 04:46:21;;;;;;;35.40;31.60;;;;;;;11.33;100.00;97229.23;107648;1270;37825;-80
2022/05/07 04:48:51;;;;;;;30.00;27.00;;;;;;;11.56;100.00;97229.89;107688;1268;83075;-81
2022/05/07 04:51:22;;;;;;;25.80;23.10;;;;;;;11.65;100.00;97227.73;107627;1268;41846;-80
2022/05/07 04:53:53;;;;;;;23.70;21.40;;;;;;;11.64;100.00;97228.96;107667;1268;34485;-81
2022/05/07 04:56:25;;;;;;;23.50;21.20;;;;;;;11.59;100.00;97229.09;107791;1268;32521;-80
2022/05/07 04:58:55;;;;;;;24.90;22.50;;;;;;;11.59;100.00;97230.09;107762;1268;43207;-80
2022/05/07 05:01:27;;;;;;;23.80;21.60;;;;;;;11.62;100.00;97229.44;107717;1270;38196;-80
2022/05/07 05:03:58;;;;;;;26.40;23.80;;;;;;;11.67;100.00;97233.20;107704;1268;44850;-80
2022/05/07 05:06:29;;;;;;;22.40;20.30;;;;;;;11.72;100.00;97237.62;107674;1268;38154;-79
2022/05/07 05:09:00;;;;;;;23.50;21.20;;;;;;;11.73;100.00;97237.61;107702;1268;38505;-80
2022/05/07 05:11:31;;;;;;;24.00;21.60;;;;;;;11.73;100.00;97238.56;107552;1270;41330;-80
2022/05/07 05:15:01;;;;;;;24.50;22.20;;;;;;;11.73;100.00;97243.92;107683;1268;41391;-80
2022/05/07 05:16:55;;;;;;;22.30;19.40;;;;;;;11.68;100.00;97247.13;107741;1268;34436;-80
2022/05/07 05:19:26;;;;;;;23.20;20.20;;;;;;;11.59;100.00;97246.94;107746;1268;33216;-80
2022/05/07 05:21:57;;;;;;;26.50;22.50;;;;;;;11.52;100.00;97252.62;107794;1268;34670;-80
2022/05/07 05:24:29;;;;;;;29.00;25.80;;;;;;;11.50;100.00;97253.04;107651;1268;40841;-77
2022/05/07 05:27:05;;;;;;;31.00;27.50;;;;;;;11.54;100.00;97253.48;107687;1268;37023;-80
2022/05/07 05:29:36;;;;;;;30.50;27.30;;;;;;;11.61;100.00;97258.23;107626;1266;44690;-80
2022/05/07 05:32:08;;;;;;;31.10;27.90;;;;;;;11.70;100.00;97257.48;107690;1268;36116;-80
2022/05/07 05:34:39;;;;;;;31.60;28.20;;;;;;;11.76;100.00;97259.22;107628;1268;57950;-80
2022/05/07 05:37:10;;;;;;;32.00;28.90;;;;;;;11.85;100.00;97259.39;107653;1268;45099;-80
2022/05/07 05:39:42;;;;;;;32.80;29.20;;;;;;;11.95;100.00;97260.58;107684;1268;40624;-80
2022/05/07 05:42:13;;;;;;;31.60;28.20;;;;;;;12.04;100.00;97264.05;107679;1268;40912;-80
2022/05/07 05:44:44;;;;;;;33.50;28.70;;;;;;;12.11;100.00;97260.86;107632;1270;37957;-80
2022/05/07 05:47:15;;;;;;;30.00;26.90;;;;;;;12.17;100.00;97260.23;107662;1268;65500;-81
2022/05/07 05:49:46;;;;;;;29.40;26.40;;;;;;;12.26;100.00;97258.34;107629;1270;36362;-80
2022/05/07 05:52:17;;;;;;;31.10;27.90;;;;;;;12.33;100.00;97258.41;107661;1270;40523;-80
2022/05/07 05:54:48;;;;;;;28.90;26.00;;;;;;;12.39;100.00;97258.55;107619;1270;44211;-80
2022/05/07 05:57:19;;;;;;;28.40;25.60;;;;;;;12.48;100.00;97261.95;107675;1268;50403;-80
2022/05/07 05:59:50;;;;;;;29.30;26.30;;;;;;;12.62;100.00;97258.69;107641;1268;50690;-80
2022/05/07 06:02:23;;;;;;;29.20;26.20;;;;;;;12.80;100.00;97262.36;107654;1268;44652;-81
2022/05/07 06:04:54;;;;;;;29.50;26.60;;;;;;;13.02;100.00;97265.92;107676;1268;49416;-80
2022/05/07 06:07:25;;;;;;;28.30;25.40;;;;;;;13.27;100.00;97262.48;107705;1268;50517;-81
2022/05/07 06:09:56;;;;;;;27.70;24.90;;;;;;;13.48;99.89;97264.05;107590;1270;37924;-80
2022/05/07 06:12:27;;;;;;;28.90;25.90;;;;;;;13.64;99.22;97265.08;107713;1268;47181;-81
2022/05/07 06:14:58;;;;;;;26.20;23.50;;;;;;;13.83;98.69;97262.06;107734;1270;36159;-81
2022/05/07 06:17:29;;;;;;;27.90;25.10;;;;;;;14.00;98.16;97264.32;107602;1270;46003;-79
2022/05/07 06:20:00;;;;;;;26.40;23.80;;;;;;;14.28;97.94;97266.94;107671;1269;50076;-80
2022/05/07 06:22:31;;;;;;;26.10;23.40;;;;;;;14.47;96.17;97266.50;107692;1268;42098;-80
2022/05/07 06:27:59;;;;;;;26.80;24.00;;;;;;;14.84;94.66;97265.95;107773;1268;42073;-80
2022/05/07 06:30:30;;;;;;;28.90;25.90;;;;;;;14.94;93.01;97268.07;107615;1270;44985;-80
2022/05/07 06:33:01;;;;;;;31.00;27.70;;;;;;;14.91;91.61;97272.95;107634;1270;52473;-80
2022/05/07 06:35:33;;;;;;;32.40;29.00;;;;;;;14.96;91.53;97269.83;107647;1270;44790;-81
2022/05/07 06:38:04;;;;;;;30.00;26.80;;;;;;;15.24;92.48;97269.23;107709;1268;36907;-81
2022/05/07 06:40:37;;;;;;;32.70;29.20;;;;;;;15.60;91.31;97272.02;107673;1268;38604;-80
2022/05/07 06:43:08;;;;;;;32.90;29.60;;;;;;;15.85;91.03;97271.48;107726;1268;39296;-81
2022/05/07 06:45:40;;;;;;;33.60;30.20;;;;;;;16.27;89.62;97272.92;107661;1270;42115;-81
2022/05/07 06:48:13;;;;;;;34.40;30.80;;;;;;;16.49;88.64;97268.41;107678;1268;44129;-81
2022/05/07 06:50:44;;;;;;;46.40;31.80;;;;;;;17.21;88.55;97265.17;107641;1268;48314;-81
2022/05/07 06:53:15;;;;;;;30.70;27.40;;;;;;;17.96;87.41;97266.66;107667;1269;38293;-81
2022/05/07 06:55:59;;;;;;;30.20;27.30;;;;;;;18.71;86.79;97265.11;107659;1270;39682;-81
2022/05/07 06:58:34;;;;;;;31.70;28.50;;;;;;;19.54;84.63;97266.89;107645;1268;43702;-81
2022/05/07 07:01:05;;;;;;;31.20;28.30;;;;;;;19.90;82.61;97271.80;107653;1269;43677;-81
2022/05/07 07:03:38;;;;;;;32.20;28.80;;;;;;;20.05;80.59;97272.31;107695;1268;48489;-81
2022/05/07 07:06:09;;;;;;;34.70;31.00;;;;;;;20.05;79.63;97274.11;107674;1268;58180;-81
2022/05/07 07:08:40;;;;;;;34.50;30.80;;;;;;;19.94;78.19;97272.89;107722;1268;34169;-81
2022/05/07 07:11:11;;;;;;;34.90;31.50;;;;;;;19.72;76.02;97277.63;107718;1268;37586;-81
2022/05/07 07:13:42;;;;;;;40.10;34.90;;;;;;;19.09;73.20;97276.05;107604;1269;46000;-82
2022/05/07 07:16:13;;;;;;;39.90;35.40;;;;;;;18.60;73.36;97281.34;107647;1268;56373;-81
2022/05/07 07:18:44;;;;;;;38.50;34.50;;;;;;;18.43;74.44;97276.06;107601;1268;58247;-81
2022/05/07 07:21:16;;;;;;;38.70;34.40;;;;;;;18.88;75.19;97274.28;107686;1268;37561;-81
2022/05/07 07:23:47;;;;;;;38.30;33.20;;;;;;;19.91;74.96;97276.73;107660;1268;54239;-81
2022/05/07 07:26:19;;;;;;;29.60;26.60;;;;;;;21.05;73.04;97277.19;107704;1268;55383;-81
2022/05/07 07:28:50;;;;;;;31.80;28.70;;;;;;;21.86;68.47;97269.73;107688;1268;32395;-81
2022/05/07 07:31:21;;;;;;;30.70;27.60;;;;;;;22.03;64.77;97268.75;107612;1270;62960;-81
2022/05/07 07:33:52;;;;;;;26.30;23.50;;;;;;;22.16;64.01;97272.13;107651;1268;37178;-81
2022/05/07 07:36:23;;;;;;;26.50;23.80;;;;;;;22.98;67.03;97267.98;107660;1270;44457;-82
2022/05/07 07:38:54;;;;;;;29.10;26.30;;;;;;;24.31;65.58;97269.31;107671;1269;40568;-82
2022/05/07 07:41:25;;;;;;;29.00;26.00;;;;;;;25.13;62.41;97271.30;107662;1270;67052;-81
2022/05/07 07:43:56;;;;;;;25.10;21.70;;;;;;;25.77;59.67;97269.23;107754;1268;38785;-82
2022/05/07 07:49:16;;;;;;;23.90;19.00;;;;;;;25.38;54.43;97276.91;107676;1268;49259;-82
2022/05/07 07:51:47;;;;;;;21.80;19.30;;;;;;;24.93;51.49;97271.80;107663;1268;43879;-82
2022/05/07 07:54:18;;;;;;;20.40;18.40;;;;;;;24.68;53.65;97276.67;107642;1268;50115;-82
2022/05/07 07:56:49;;;;;;;13.20;11.90;;;;;;;25.12;54.65;97276.64;107690;1268;41743;-82
2022/05/07 07:59:19;;;;;;;13.40;11.10;;;;;;;25.91;54.23;97272.09;107598;1270;34058;-82
2022/05/07 08:01:51;;;;;;;19.70;17.70;;;;;;;26.63;51.26;97271.33;107524;1270;63250;-82
2022/05/07 08:04:22;;;;;;;18.20;16.40;;;;;;;26.63;48.86;97271.89;107624;1268;51169;-82
2022/05/07 08:12:26;;;;;;;20.20;17.80;;;;;;;26.36;48.56;97280.23;107688;1270;45183;-82
2022/05/07 08:14:57;;;;;;;17.80;16.00;;;;;;;25.87;49.29;97283.52;107738;1268;49305;-82
2022/05/07 08:17:28;;;;;;;19.70;17.70;;;;;;;26.06;49.27;97283.55;107728;1268;36362;-82
2022/05/07 08:19:59;;;;;;;20.10;18.10;;;;;;;26.03;49.10;97282.42;107722;1268;31589;-81
2022/05/07 08:22:30;;;;;;;24.10;20.20;;;;;;;25.82;48.60;97287.48;107731;1268;45509;-82
2022/05/07 08:25:01;;;;;;;21.10;18.10;;;;;;;25.30;48.28;97287.31;107586;1270;39316;-81
2022/05/07 08:27:34;;;;;;;23.60;21.30;;;;;;;24.61;48.78;97286.27;107533;1270;39283;-82
2022/05/07 08:30:06;;;;;;;24.40;21.80;;;;;;;23.92;49.42;97285.91;107665;1270;53645;-81
2022/05/07 08:32:37;;;;;;;24.50;20.70;;;;;;;23.33;50.00;97288.33;107747;1268;36982;-82
2022/05/07 08:35:10;;;;;;;24.10;19.70;;;;;;;22.85;48.60;97287.55;107682;1268;33502;-82
2022/05/07 08:37:40;;;;;;;24.70;19.30;;;;;;;22.29;50.10;97289.91;107649;1270;40111;-82
2022/05/07 08:40:14;;;;;;;20.20;16.70;;;;;;;22.64;51.27;97286.21;107665;1270;40153;-82
2022/05/07 08:42:46;;;;;;;18.20;15.80;;;;;;;23.32;50.34;97287.83;107629;1270;34561;-82
2022/05/07 08:45:17;;;;;;;17.20;15.50;;;;;;;23.75;49.58;97284.79;107626;1268;37512;-83
2022/05/07 08:47:51;;;;;;;17.30;14.90;;;;;;;24.11;47.59;97286.08;107724;1268;34326;-82
2022/05/07 08:50:23;;;;;;;18.40;15.50;;;;;;;24.55;48.72;97290.16;107680;1268;37567;-82
2022/05/07 08:52:55;;;;;;;18.20;13.30;;;;;;;25.81;47.91;97282.92;107745;1268;37532;-82
2022/05/07 08:55:26;;;;;;;15.10;13.60;;;;;;;26.20;44.84;97285.11;107746;1268;36641;-82
2022/05/07 08:57:57;;;;;;;16.00;14.40;;;;;;;25.75;40.15;97288.02;107705;1270;41981;-82
2022/05/07 09:00:29;;;;;;;20.00;18.20;;;;;;;26.24;44.42;97283.98;107722;1268;35558;-79
2022/05/07 09:03:02;;;;;;;18.40;16.40;;;;;;;27.42;44.99;97283.27;107639;1270;39113;-82
2022/05/07 09:05:38;;;;;;;18.70;16.80;;;;;;;27.92;43.32;97287.32;107704;1268;33178;-82
2022/05/07 09:08:12;;;;;;;16.60;14.90;;;;;;;26.87;42.02;97290.69;107710;1268;30882;-82
2022/05/07 09:10:44;;;;;;;15.70;14.10;;;;;;;25.11;40.89;97297.89;106472;1268;1780566;-82
2022/05/07 09:13:16;;;;;;;21.70;18.20;;;;;;;23.64;42.13;97298.39;107670;1268;49166;-82
2022/05/07 09:15:55;;;;;;;19.30;16.50;;;;;;;22.43;43.82;97300.23;107687;1268;38878;-81
2022/05/07 09:18:28;;;;;;;19.90;16.60;;;;;;;21.86;46.58;97301.43;107763;1268;37266;-82
2022/05/07 09:21:26;;;;;;;16.40;14.60;;;;;;;21.71;47.45;97298.36;107706;1268;34210;-81
2022/05/07 09:24:08;;;;;;;16.80;14.80;;;;;;;21.48;47.06;97303.60;107743;1270;31129;-83
2022/05/07 09:26:43;;;;;;;17.60;14.90;;;;;;;21.18;46.48;97298.80;107641;1270;48042;-82
2022/05/07 09:29:15;;;;;;;19.50;17.40;;;;;;;20.88;47.71;97303.14;107588;1268;47379;-82
2022/05/07 09:31:48;;;;;;;21.20;17.60;;;;;;;20.67;48.49;97300.10;107724;1268;41231;-82
2022/05/07 09:37:17;;;;;;;19.40;16.70;;;;;;;19.68;47.91;97300.77;107685;1270;35097;-82
2022/05/07 09:39:53;;;;;;;20.20;17.20;;;;;;;19.03;48.13;97302.29;107672;1270;37948;-82
2022/05/07 09:42:25;;;;;;;18.60;16.30;;;;;;;18.50;48.83;97302.18;107617;1270;45980;-82
2022/05/07 09:45:00;;;;;;;17.50;14.90;;;;;;;18.44;50.78;97300.59;107702;1270;34395;-82
2022/05/07 09:47:32;;;;;;;16.70;14.60;;;;;;;18.56;51.42;97295.34;107654;1268;43687;-82
2022/05/07 09:50:43;;;;;;;17.80;13.90;;;;;;;18.72;51.43;97298.13;107682;1268;31042;-82
2022/05/07 09:58:55;;;;;;;18.80;15.20;;;;;;;18.14;49.64;97295.33;107735;1268;35218;-82
2022/05/07 10:01:45;;;;;;;18.30;14.60;;;;;;;17.74;49.71;97293.85;107764;1268;40939;-81
2022/05/07 10:04:47;;;;;;;19.70;15.60;;;;;;;17.56;50.56;97291.77;107650;1268;33848;-81
2022/05/07 10:07:36;;;;;;;19.00;14.90;;;;;;;17.62;52.35;97289.31;107670;1268;38619;-82
2022/05/07 10:10:19;;;;;;;19.40;15.40;;;;;;;17.65;51.97;97283.17;107687;1268;36472;-81
2022/05/07 10:12:50;;;;;;;14.70;12.90;;;;;;;17.71;52.37;97282.19;107647;1268;44456;-81
2022/05/07 10:15:24;;;;;;;19.40;14.20;;;;;;;17.60;51.79;97277.84;107656;1270;37410;-81
2022/05/07 10:18:03;;;;;;;17.50;13.90;;;;;;;17.51;52.37;97276.45;107854;1269;50537;-82
2022/05/07 10:20:40;;;;;;;17.50;13.10;;;;;;;17.43;51.48;97273.92;107626;1268;45198;-81
2022/05/07 10:23:12;;;;;;;15.80;13.40;;;;;;;17.36;51.62;97272.81;107757;1268;45818;-81
2022/05/07 10:25:56;;;;;;;18.40;13.40;;;;;;;17.45;51.61;97272.11;107760;1268;31781;-81
2022/05/07 10:28:40;;;;;;;14.40;11.60;;;;;;;17.80;52.48;97265.07;107781;1268;41127;-81
2022/05/07 10:31:20;;;;;;;14.40;10.30;;;;;;;18.33;52.99;97264.96;107707;1269;46518;-81
2022/05/07 10:33:52;;;;;;;13.50;10.20;;;;;;;18.76;52.12;97260.71;107738;1268;30501;-81
2022/05/07 10:36:35;;;;;;;13.10;10.90;;;;;;;18.90;51.46;97256.55;107666;1270;38529;-82
2022/05/07 10:39:10;;;;;;;12.20;10.30;;;;;;;19.00;50.97;97257.84;107612;1270;59486;-81
2022/05/07 10:41:49;;;;;;;14.00;9.80;;;;;;;19.09;51.15;97259.33;107647;1268;44419;-82
2022/05/07 10:44:32;;;;;;;13.30;9.50;;;;;;;19.08;49.17;97261.95;107699;1268;37264;-81
2022/05/07 10:47:15;;;;;;;12.10;9.90;;;;;;;18.87;49.46;97264.01;107640;1269;44467;-81
2022/05/07 10:50:08;;;;;;;14.40;10.20;;;;;;;18.87;50.45;97263.40;107701;1270;40004;-82
2022/05/07 10:52:39;;;;;;;13.60;9.60;;;;;;;18.97;50.08;97266.48;107654;1268;43596;-82
2022/05/07 10:55:12;;;;;;;12.30;9.80;;;;;;;19.14;50.30;97263.31;107667;1268;37725;-81
2022/05/07 10:57:47;;;;;;;14.70;10.50;;;;;;;19.30;50.17;97269.00;107648;1270;48388;-82
2022/05/07 11:00:20;;;;;;;13.20;9.80;;;;;;;19.42;49.45;97263.69;107697;1270;38185;-81
2022/05/07 11:02:58;;;;;;;14.00;9.60;;;;;;;19.48;49.44;97262.39;107729;1270;32329;-81
2022/05/07 11:05:36;;;;;;;13.90;10.00;;;;;;;19.36;46.89;97262.12;107765;1270;30030;-82
2022/05/07 11:08:09;;;;;;;12.70;10.00;;;;;;;18.72;46.61;97252.89;107681;1269;33923;-81
2022/05/07 11:10:40;;;;;;;15.70;10.50;;;;;;;18.37;47.72;97256.95;107653;1268;46743;-81
2022/05/07 11:13:13;;;;;;;12.40;10.10;;;;;;;18.22;47.52;97260.48;107682;1268;41352;-81
2022/05/07 11:15:50;;;;;;;12.70;9.70;;;;;;;18.05;48.44;97257.69;107473;1270;249640;-81
2022/05/07 11:18:21;;;;;;;13.20;9.60;;;;;;;18.16;49.47;97253.20;107734;1268;33052;-81
2022/05/07 11:21:03;;;;;;;15.80;10.80;;;;;;;18.07;48.59;97250.39;107626;1268;43990;-81
2022/05/07 11:23:38;;;;;;;12.70;11.00;;;;;;;17.93;49.21;97245.48;107649;1268;44219;-81
2022/05/07 11:26:20;;;;;;;12.90;10.80;;;;;;;17.83;49.28;97246.48;107688;1268;42178;-81
2022/05/07 11:28:52;;;;;;;13.10;10.10;;;;;;;17.78;49.64;97248.39;107711;1268;38967;-81
2022/05/07 11:31:32;;;;;;;12.20;10.30;;;;;;;17.90;49.88;97245.27;107741;1268;34912;-81
2022/05/07 11:34:06;;;;;;;14.90;11.80;;;;;;;17.84;49.35;97246.52;107666;1270;42574;-81
2022/05/07 11:36:38;;;;;;;15.60;10.90;;;;;;;17.82;51.10;97242.98;107679;1268;46207;-81
2022/05/07 11:39:10;;;;;;;14.00;11.00;;;;;;;18.15;52.12;97242.33;107632;1270;50490;-81
2022/05/07 11:41:41;;;;;;;14.40;11.20;;;;;;;18.49;51.77;97239.76;107615;1270;40735;-81
2022/05/07 11:47:01;;;;;;;13.70;11.50;;;;;;;19.07;51.02;97244.48;107704;1271;41946;-81
2022/05/07 11:49:34;;;;;;;12.80;11.50;;;;;;;19.33;51.27;97247.16;107687;1268;37357;-81
2022/05/07 11:52:11;;;;;;;13.30;11.50;;;;;;;19.50;51.40;97246.05;107663;1269;41914;-81
2022/05/07 11:54:53;;;;;;;17.80;12.40;;;;;;;19.79;50.96;97251.19;107718;1271;34519;-81
2022/05/07 11:57:32;;;;;;;13.80;11.80;;;;;;;20.07;51.35;97254.73;107769;1270;32047;-81
2022/05/07 12:00:18;;;;;;;13.90;11.00;;;;;;;20.27;50.69;97252.13;107683;1268;43193;-81